createdAt,value
2022-08-14T00:02:01.646Z,68.10
2022-08-14T00:04:35.795Z,68.50
2022-08-14T00:07:14.618Z,68.70
2022-08-14T00:09:55.566Z,68.80
2022-08-14T00:12:44.018Z,69.30
2022-08-14T00:15:21.803Z,69.70
2022-08-14T00:17:53.516Z,69.90
2022-08-14T00:20:30.195Z,70.20
2022-08-14T00:23:12.367Z,70.50
2022-08-14T00:25:59.113Z,70.40
2022-08-14T00:28:35.988Z,70.70
2022-08-14T00:31:06.513Z,71.10
2022-08-14T00:33:50.646Z,71.40
2022-08-14T00:36:35.083Z,71.70
2022-08-14T00:39:15.171Z,71.80
2022-08-14T00:41:47.026Z,72.10
2022-08-14T00:44:31.862Z,72.40
2022-08-14T00:47:02.558Z,72.60
2022-08-14T00:49:37.918Z,73.40
2022-08-14T00:52:07.046Z,73.30
2022-08-14T00:54:38.794Z,72.60
2022-08-14T00:57:08.621Z,71.90
2022-08-14T00:59:37.205Z,71.20
2022-08-14T01:02:06.618Z,70.80
2022-08-14T01:04:54.425Z,70.40
2022-08-14T01:07:23.981Z,70.10
2022-08-14T01:09:55.808Z,70.00
2022-08-14T01:12:26.483Z,70.20
2022-08-14T01:14:58.421Z,70.80
2022-08-14T01:17:49.619Z,71.40
2022-08-14T01:20:39.695Z,72.20
2022-08-14T01:23:16.021Z,72.60
2022-08-14T01:25:47.757Z,72.60
2022-08-14T01:28:46.271Z,72.40
2022-08-14T01:31:06.003Z,72.30
2022-08-14T01:33:59.347Z,71.80
2022-08-14T01:36:23.796Z,71.50
2022-08-14T01:38:58.086Z,71.60
2022-08-14T01:41:30.248Z,72.80
2022-08-14T01:44:01.631Z,73.70
2022-08-14T01:46:33.447Z,75.00
2022-08-14T01:49:08.077Z,75.80
2022-08-14T01:51:37.565Z,76.50
2022-08-14T01:54:14.267Z,77.00
2022-08-14T01:56:44.688Z,77.40
2022-08-14T01:59:22.337Z,78.00
2022-08-14T02:01:58.178Z,78.20
2022-08-14T02:04:56.026Z,78.50
2022-08-14T02:07:44.519Z,78.90
2022-08-14T02:10:13.141Z,79.10
2022-08-14T02:12:43.861Z,79.30
2022-08-14T02:15:12.707Z,79.50
2022-08-14T02:17:43.885Z,79.40
2022-08-14T02:20:13.969Z,79.90
2022-08-14T02:22:47.615Z,79.00
2022-08-14T02:25:17.658Z,79.20
2022-08-14T02:28:23.513Z,78.80
2022-08-14T02:30:34.797Z,79.20
2022-08-14T02:33:07.344Z,78.10
2022-08-14T02:35:40.686Z,77.70
2022-08-14T02:38:11.919Z,77.10
2022-08-14T02:40:59.605Z,76.90
2022-08-14T02:43:36.484Z,77.10
2022-08-14T02:46:05.680Z,77.10
2022-08-14T02:49:01.528Z,77.10
2022-08-14T02:51:25.303Z,77.20
2022-08-14T02:53:59.032Z,77.80
2022-08-14T02:57:15.263Z,78.20
2022-08-14T02:59:18.561Z,78.00
2022-08-14T03:01:50.929Z,77.20
2022-08-14T03:04:22.707Z,76.70
2022-08-14T03:07:05.979Z,77.80
2022-08-14T03:09:42.174Z,77.70
2022-08-14T03:12:31.193Z,77.70
2022-08-14T03:15:03.131Z,77.20
2022-08-14T03:17:41.336Z,77.10
2022-08-14T03:20:22.502Z,77.10
2022-08-14T03:22:51.492Z,76.70
2022-08-14T03:25:21.730Z,76.50
2022-08-14T03:27:58.353Z,76.40
2022-08-14T03:30:39.856Z,76.20
2022-08-14T03:33:11.353Z,75.60
2022-08-14T03:36:05.227Z,75.00
2022-08-14T03:39:10.617Z,74.70
2022-08-14T03:41:23.095Z,74.90
2022-08-14T03:43:57.751Z,74.90
2022-08-14T03:46:38.890Z,74.70
2022-08-14T03:49:29.385Z,74.90
2022-08-14T03:52:01.113Z,74.80
2022-08-14T03:54:30.379Z,75.00
2022-08-14T03:57:02.379Z,74.80
2022-08-14T03:59:32.739Z,74.80
2022-08-14T04:02:01.755Z,74.70
2022-08-14T04:04:30.704Z,74.70
2022-08-14T04:07:00.045Z,74.90
2022-08-14T04:09:28.418Z,75.10
2022-08-14T04:11:59.500Z,75.10
2022-08-14T04:14:29.059Z,74.90
2022-08-14T04:16:58.885Z,74.70
2022-08-14T04:19:32.762Z,74.60
2022-08-14T04:22:03.625Z,74.70
2022-08-14T04:24:38.069Z,75.00
2022-08-14T04:27:09.465Z,75.70
2022-08-14T04:29:39.222Z,76.60
2022-08-14T04:33:00.116Z,77.60
2022-08-14T04:34:57.852Z,78.60
2022-08-14T04:37:45.257Z,79.00
2022-08-14T04:40:32.251Z,78.80
2022-08-14T04:43:18.054Z,78.40
2022-08-14T04:45:51.313Z,78.10
2022-08-14T04:48:38.835Z,78.20
2022-08-14T04:51:11.728Z,78.70
2022-08-14T04:53:43.971Z,79.20
2022-08-14T04:56:30.975Z,79.80
2022-08-14T04:59:09.746Z,81.00
2022-08-14T05:01:47.875Z,81.60
2022-08-14T05:04:21.098Z,81.20
2022-08-14T05:06:54.497Z,81.10
2022-08-14T05:09:24.626Z,81.80
2022-08-14T05:13:10.856Z,82.00
2022-08-14T05:14:54.672Z,81.90
2022-08-14T05:17:32.069Z,81.90
2022-08-14T05:21:54.492Z,81.60
2022-08-14T05:23:02.323Z,81.60
2022-08-14T05:25:34.273Z,81.40
2022-08-14T05:28:11.535Z,80.90
2022-08-14T05:30:44.488Z,80.30
2022-08-14T05:33:12.794Z,80.50
2022-08-14T05:35:42.734Z,79.60
2022-08-14T05:38:22.412Z,79.40
2022-08-14T05:40:59.726Z,79.70
2022-08-14T05:43:40.680Z,79.70
2022-08-14T05:46:15.061Z,79.40
2022-08-14T05:48:43.932Z,79.40
2022-08-14T05:51:14.829Z,79.60
2022-08-14T05:53:43.587Z,80.20
2022-08-14T05:56:29.173Z,79.30
2022-08-14T05:58:57.418Z,79.50
2022-08-14T06:01:31.650Z,79.60
2022-08-14T06:04:00.202Z,79.60
2022-08-14T06:06:32.678Z,79.20
2022-08-14T06:09:05.309Z,79.80
2022-08-14T06:11:33.364Z,79.60
2022-08-14T06:14:01.369Z,79.70
2022-08-14T06:16:31.652Z,79.80
2022-08-14T06:19:01.100Z,80.80
2022-08-14T06:21:30.725Z,81.80
2022-08-14T06:24:00.792Z,82.30
2022-08-14T06:26:30.586Z,82.50
2022-08-14T06:28:59.939Z,83.40
2022-08-14T06:31:28.019Z,84.00
2022-08-14T06:35:10.329Z,84.30
2022-08-14T06:36:46.344Z,84.50
2022-08-14T06:39:14.538Z,84.40
2022-08-14T06:41:58.650Z,84.20
2022-08-14T06:44:32.211Z,84.20
2022-08-14T06:47:01.687Z,85.10
2022-08-14T06:49:30.178Z,83.70
2022-08-14T06:52:00.602Z,83.90
2022-08-14T06:54:31.188Z,83.60
2022-08-14T06:56:59.688Z,83.00
2022-08-14T06:59:28.165Z,83.40
2022-08-14T07:02:17.787Z,83.90
2022-08-14T07:05:12.798Z,84.00
2022-08-14T07:07:50.955Z,82.90
2022-08-14T07:10:22.149Z,81.70
2022-08-14T07:13:01.814Z,81.10
2022-08-14T07:15:32.425Z,81.30
2022-08-14T07:18:01.258Z,81.80
2022-08-14T07:20:31.291Z,81.90
2022-08-14T07:23:07.769Z,82.20
2022-08-14T07:25:37.527Z,81.20
2022-08-14T07:28:12.908Z,80.20
2022-08-14T07:30:51.464Z,80.80
2022-08-14T07:33:24.593Z,82.00
2022-08-14T07:35:59.450Z,82.00
2022-08-14T07:38:37.618Z,82.40
2022-08-14T07:41:14.389Z,81.90
2022-08-14T07:43:53.044Z,81.30
2022-08-14T07:46:29.233Z,81.20
2022-08-14T07:48:58.200Z,81.60
2022-08-14T07:51:28.155Z,80.50
2022-08-14T07:54:04.507Z,80.20
2022-08-14T07:56:47.368Z,80.10
2022-08-14T07:59:18.535Z,79.10
2022-08-14T08:01:51.689Z,79.20
2022-08-14T08:04:27.045Z,79.50
2022-08-14T08:06:55.777Z,79.00
2022-08-14T08:09:31.833Z,79.00
2022-08-14T08:12:04.956Z,78.40
2022-08-14T08:14:56.049Z,78.00
2022-08-14T08:17:34.885Z,76.70
2022-08-14T08:20:11.382Z,77.60
2022-08-14T08:22:43.335Z,74.90
2022-08-14T08:25:18.897Z,76.50
2022-08-14T08:28:08.724Z,75.10
2022-08-14T08:30:49.306Z,74.60
2022-08-14T08:33:18.557Z,73.30
2022-08-14T08:35:50.703Z,73.00
2022-08-14T08:39:17.929Z,71.40
2022-08-14T08:41:11.809Z,73.10
2022-08-14T08:43:46.932Z,72.50
2022-08-14T08:46:23.325Z,73.20
2022-08-14T08:51:33.426Z,70.20
2022-08-14T08:54:06.596Z,68.50
2022-08-14T08:56:40.559Z,69.00
2022-08-14T08:59:21.189Z,68.60
2022-08-14T09:01:56.365Z,65.80
2022-08-14T09:04:27.679Z,65.50
2022-08-14T09:07:10.339Z,65.80
2022-08-14T09:09:54.225Z,63.20
2022-08-14T09:12:31.680Z,64.30
2022-08-14T09:15:02.373Z,64.30
2022-08-14T09:17:30.760Z,62.90
2022-08-14T09:20:02.239Z,62.60
2022-08-14T09:22:36.168Z,64.50
2022-08-14T09:25:07.158Z,62.00
2022-08-14T09:27:38.096Z,62.20
2022-08-14T09:30:13.296Z,63.10
2022-08-14T09:33:12.953Z,61.90
2022-08-14T09:35:56.506Z,60.20
2022-08-14T09:38:33.977Z,62.30
2022-08-14T09:41:14.613Z,61.10
2022-08-14T09:44:04.645Z,60.90
2022-08-14T09:46:34.605Z,61.10
2022-08-14T09:49:05.034Z,59.80
2022-08-14T09:51:45.047Z,60.80
2022-08-14T09:54:23.925Z,61.30
2022-08-14T09:56:57.118Z,60.50
2022-08-14T09:59:33.540Z,60.80
2022-08-14T10:02:07.075Z,61.30
2022-08-14T10:04:43.640Z,59.90
2022-08-14T10:07:14.849Z,58.30
2022-08-14T10:10:00.342Z,59.10
2022-08-14T10:12:45.315Z,58.70
2022-08-14T10:15:21.067Z,58.70
2022-08-14T10:17:50.185Z,56.20
2022-08-14T10:20:42.145Z,56.50
2022-08-14T10:23:16.501Z,55.60
2022-08-14T10:25:50.624Z,55.40
2022-08-14T10:28:51.307Z,56.00
2022-08-14T10:31:19.960Z,56.10
2022-08-14T10:34:12.819Z,57.20
2022-08-14T10:36:47.694Z,54.00
2022-08-14T10:39:19.778Z,53.40
2022-08-14T10:41:53.941Z,55.20
2022-08-14T10:44:29.720Z,55.10
2022-08-14T10:47:40.203Z,56.20
2022-08-14T10:49:58.750Z,55.50
2022-08-14T10:52:34.530Z,53.90
2022-08-14T10:55:13.822Z,51.80
2022-08-14T10:57:51.324Z,54.90
2022-08-14T11:00:29.907Z,52.90
2022-08-14T11:03:09.372Z,51.60
2022-08-14T11:05:43.291Z,52.10
2022-08-14T11:08:14.259Z,51.20
2022-08-14T11:10:45.702Z,50.00
2022-08-14T11:13:18.622Z,50.40
2022-08-14T11:15:48.760Z,50.80
2022-08-14T11:18:20.357Z,51.00
2022-08-14T11:21:00.401Z,50.70
2022-08-14T11:23:38.597Z,48.80
2022-08-14T11:26:10.639Z,49.80
2022-08-14T11:28:46.821Z,46.80
2022-08-14T11:31:19.730Z,49.50
2022-08-14T11:33:57.587Z,48.40
2022-08-14T11:37:02.119Z,49.30
2022-08-14T11:39:33.317Z,47.70
2022-08-14T11:42:55.512Z,47.70
2022-08-14T11:44:53.628Z,49.30
2022-08-14T11:47:25.042Z,49.30
2022-08-14T11:49:55.950Z,49.80
2022-08-14T11:52:40.380Z,47.90
2022-08-14T11:55:12.745Z,48.20
2022-08-14T11:57:41.712Z,46.70
2022-08-14T12:00:14.860Z,47.50
2022-08-14T12:03:02.848Z,48.40
2022-08-14T12:05:36.681Z,48.80
2022-08-14T12:08:11.949Z,46.70
2022-08-14T12:10:44.163Z,48.10
2022-08-14T12:13:13.971Z,47.80
2022-08-14T12:15:49.607Z,47.80
2022-08-14T12:18:32.431Z,48.60
2022-08-14T12:21:15.735Z,47.20
2022-08-14T12:23:50.533Z,48.20
2022-08-14T12:26:39.633Z,47.80
2022-08-14T12:29:09.873Z,47.00
2022-08-14T12:31:44.436Z,44.50
2022-08-14T12:34:20.134Z,43.90
2022-08-14T12:36:50.889Z,43.40
2022-08-14T12:39:22.624Z,43.20
2022-08-14T12:41:57.291Z,43.20
2022-08-14T12:44:32.094Z,45.00
2022-08-14T12:47:06.244Z,44.40
2022-08-14T12:49:35.150Z,43.50
2022-08-14T12:52:12.201Z,44.00
2022-08-14T12:54:57.444Z,44.70
2022-08-14T12:57:42.250Z,44.10
2022-08-14T13:00:22.688Z,43.00
2022-08-14T13:02:55.377Z,43.60
2022-08-14T13:05:27.549Z,43.20
2022-08-14T13:07:57.302Z,43.40
2022-08-14T13:10:46.734Z,43.50
2022-08-14T13:16:20.936Z,44.20
2022-08-14T13:19:03.285Z,43.70
2022-08-14T13:22:05.399Z,42.50
2022-08-14T13:24:27.567Z,44.00
2022-08-14T13:26:59.261Z,42.50
2022-08-14T13:29:29.634Z,42.90
2022-08-14T13:31:59.655Z,44.60
2022-08-14T13:34:31.608Z,42.90
2022-08-14T13:37:03.777Z,41.10
2022-08-14T13:39:36.459Z,42.40
2022-08-14T13:42:13.429Z,41.50
2022-08-14T13:44:43.399Z,39.60
2022-08-14T13:47:14.836Z,41.60
2022-08-14T13:49:57.869Z,42.10
2022-08-14T13:52:52.746Z,42.20
2022-08-14T13:55:19.771Z,42.90
2022-08-14T13:57:57.819Z,43.30
2022-08-14T14:00:35.572Z,43.90
2022-08-14T14:03:20.753Z,43.10
2022-08-14T14:05:54.224Z,41.10
2022-08-14T14:08:46.382Z,41.60
2022-08-14T14:11:15.995Z,42.40
2022-08-14T14:13:45.896Z,44.10
2022-08-14T14:16:26.455Z,44.10
2022-08-14T14:19:06.835Z,44.10
2022-08-14T14:21:40.902Z,43.00
2022-08-14T14:24:14.805Z,41.50
2022-08-14T14:26:47.961Z,41.90
2022-08-14T14:29:24.184Z,41.40
2022-08-14T14:31:54.970Z,43.40
2022-08-14T14:34:30.113Z,42.80
2022-08-14T14:37:03.077Z,42.70
2022-08-14T14:39:37.877Z,42.60
2022-08-14T14:42:31.966Z,42.60
2022-08-14T14:45:07.674Z,42.40
2022-08-14T14:47:37.482Z,42.80
2022-08-14T14:50:11.123Z,41.60
2022-08-14T14:52:40.565Z,43.20
2022-08-14T14:55:12.502Z,44.80
2022-08-14T14:57:52.107Z,44.70
2022-08-14T15:00:23.335Z,43.30
2022-08-14T15:02:53.397Z,42.40
2022-08-14T15:05:28.462Z,44.60
2022-08-14T15:07:56.686Z,43.20
2022-08-14T15:10:27.880Z,43.10
2022-08-14T15:13:05.316Z,43.30
2022-08-14T15:15:37.818Z,44.20
2022-08-14T15:18:36.193Z,44.90
2022-08-14T15:20:57.394Z,41.60
2022-08-14T15:23:43.586Z,42.00
2022-08-14T15:26:24.297Z,44.60
2022-08-14T15:29:04.933Z,44.00
2022-08-14T15:31:36.492Z,46.10
2022-08-14T15:34:43.134Z,41.20
2022-08-14T15:37:04.694Z,44.10
2022-08-14T15:39:35.761Z,43.30
2022-08-14T15:42:15.861Z,45.60
2022-08-14T15:44:57.815Z,43.20
2022-08-14T15:47:31.540Z,42.10
2022-08-14T15:50:02.957Z,44.10
2022-08-14T15:52:35.120Z,44.10
2022-08-14T15:55:06.845Z,44.00
2022-08-14T15:57:36.664Z,43.80
2022-08-14T16:00:43.583Z,44.10
2022-08-14T16:03:27.008Z,44.30
2022-08-14T16:06:03.274Z,45.90
2022-08-14T16:08:32.109Z,45.10
2022-08-14T16:11:02.483Z,44.50
2022-08-14T16:13:41.767Z,43.70
2022-08-14T16:16:47.242Z,43.70
2022-08-14T16:19:09.754Z,43.00
2022-08-14T16:21:41.015Z,42.80
2022-08-14T16:24:33.273Z,42.60
2022-08-14T16:27:03.482Z,43.10
2022-08-14T16:29:35.785Z,43.60
2022-08-14T16:32:31.977Z,42.90
2022-08-14T16:34:55.866Z,42.60
2022-08-14T16:37:30.531Z,42.40
2022-08-14T16:40:00.359Z,42.20
2022-08-14T16:42:39.229Z,41.70
2022-08-14T16:45:19.031Z,41.90
2022-08-14T16:47:53.636Z,41.60
2022-08-14T16:50:42.971Z,42.10
2022-08-14T16:53:10.411Z,42.30
2022-08-14T16:55:53.821Z,41.50
2022-08-14T16:58:29.713Z,42.10
2022-08-14T17:01:22.446Z,43.20
2022-08-14T17:04:01.190Z,42.80
2022-08-14T17:06:57.414Z,43.30
2022-08-14T17:09:32.151Z,44.20
2022-08-14T17:12:07.335Z,43.40
2022-08-14T17:15:10.494Z,43.80
2022-08-14T17:17:58.032Z,43.50
2022-08-14T17:20:54.052Z,43.90
2022-08-14T17:23:17.692Z,43.80
2022-08-14T17:25:50.755Z,44.20
2022-08-14T17:28:52.099Z,44.40
2022-08-14T17:31:09.710Z,44.60
2022-08-14T17:33:51.776Z,44.80
2022-08-14T17:36:24.245Z,44.80
2022-08-14T17:39:06.111Z,45.80
2022-08-14T17:41:38.653Z,45.70
2022-08-14T17:44:34.291Z,45.60
2022-08-14T17:47:13.406Z,46.40
2022-08-14T17:49:47.087Z,47.80
2022-08-14T17:52:34.311Z,49.10
2022-08-14T17:55:06.780Z,50.10
2022-08-14T17:57:40.886Z,50.60
2022-08-14T18:00:12.941Z,52.00
2022-08-14T18:02:50.832Z,53.00
2022-08-14T18:06:07.488Z,53.70
2022-08-14T18:08:33.629Z,53.90
2022-08-14T18:11:03.211Z,54.40
2022-08-14T18:13:51.282Z,54.90
2022-08-14T18:16:28.015Z,55.10
2022-08-14T18:19:02.480Z,55.60
2022-08-14T18:21:41.508Z,55.60
2022-08-14T18:24:31.699Z,56.00
2022-08-14T18:27:08.871Z,56.20
2022-08-14T18:29:55.028Z,56.00
2022-08-14T18:32:55.474Z,56.00
2022-08-14T18:35:45.735Z,55.90
2022-08-14T18:38:26.100Z,55.90
2022-08-14T18:41:37.378Z,55.70
2022-08-14T18:44:10.204Z,55.60
2022-08-14T18:47:14.998Z,55.90
2022-08-14T18:50:26.395Z,55.90
2022-08-14T18:52:54.914Z,56.10
2022-08-14T18:55:53.837Z,56.40
2022-08-14T18:58:28.231Z,56.50
2022-08-14T19:01:04.537Z,56.70
2022-08-14T19:04:08.879Z,57.10
2022-08-14T19:06:56.548Z,57.60
2022-08-14T19:09:59.016Z,57.60
2022-08-14T19:13:12.141Z,57.80
2022-08-14T19:15:56.542Z,57.90
2022-08-14T19:18:28.767Z,58.00
2022-08-14T19:21:01.053Z,58.40
2022-08-14T19:23:43.901Z,58.90
2022-08-14T19:26:53.990Z,59.90
2022-08-14T19:29:37.712Z,61.30
2022-08-14T19:32:57.018Z,60.70
2022-08-14T19:36:00.138Z,61.20
2022-08-14T19:38:54.916Z,61.40
2022-08-14T19:41:29.950Z,61.10
2022-08-14T19:44:12.162Z,61.10
2022-08-14T19:47:01.259Z,60.90
2022-08-14T19:50:08.324Z,60.00
2022-08-14T19:52:37.121Z,60.00
2022-08-14T19:55:16.228Z,60.00
2022-08-14T19:57:57.871Z,60.10
2022-08-14T20:00:29.440Z,60.20
2022-08-14T20:03:10.586Z,60.10
2022-08-14T20:05:43.131Z,60.40
2022-08-14T20:10:59.043Z,60.20
2022-08-14T20:11:43.382Z,60.20
2022-08-14T20:13:58.777Z,60.10
2022-08-14T20:16:32.412Z,60.20
2022-08-14T20:19:17.521Z,60.70
2022-08-14T20:22:04.334Z,61.10
2022-08-14T20:24:41.203Z,61.50
2022-08-14T20:27:33.959Z,61.50
2022-08-14T20:30:33.179Z,61.70
2022-08-14T20:33:01.444Z,62.20
2022-08-14T20:35:35.414Z,62.50
2022-08-14T20:38:31.363Z,62.90
2022-08-14T20:40:59.610Z,62.90
2022-08-14T20:43:47.939Z,63.10
2022-08-14T20:46:23.540Z,63.80
2022-08-14T20:48:59.985Z,64.20
2022-08-14T20:51:36.831Z,64.70
2022-08-14T20:54:09.968Z,65.10
2022-08-14T20:56:40.437Z,65.50
2022-08-14T20:59:17.518Z,65.50
2022-08-14T21:01:51.903Z,65.90
2022-08-14T21:04:27.145Z,66.10
2022-08-14T21:07:25.776Z,66.20
2022-08-14T21:10:06.083Z,66.30
2022-08-14T21:12:39.133Z,66.40
2022-08-14T21:15:27.460Z,66.70
2022-08-14T21:18:01.659Z,67.10
2022-08-14T21:20:29.634Z,67.40
2022-08-14T21:23:00.595Z,67.50
2022-08-14T21:25:31.695Z,67.80
2022-08-14T21:28:04.712Z,68.10
2022-08-14T21:30:51.828Z,68.40
2022-08-14T21:33:27.750Z,68.30
2022-08-14T21:36:07.534Z,68.10
2022-08-14T21:38:39.349Z,68.00
2022-08-14T21:41:42.309Z,67.60
2022-08-14T21:44:20.367Z,67.40
2022-08-14T21:46:53.666Z,67.40
2022-08-14T21:49:34.130Z,67.40
2022-08-14T21:52:49.471Z,67.50
2022-08-14T21:55:12.245Z,67.40
2022-08-14T21:58:03.962Z,67.60
2022-08-14T22:00:39.654Z,67.80
2022-08-14T22:03:16.894Z,67.80
2022-08-14T22:05:49.434Z,67.90
2022-08-14T22:08:18.496Z,68.20
2022-08-14T22:10:51.504Z,68.20
2022-08-14T22:13:25.713Z,68.10
2022-08-14T22:15:59.725Z,68.10
2022-08-14T22:18:31.085Z,68.00
2022-08-14T22:21:05.775Z,67.90
2022-08-14T22:23:36.470Z,67.60
2022-08-14T22:26:07.751Z,67.40
2022-08-14T22:28:39.461Z,67.50
2022-08-14T22:31:22.245Z,67.40
2022-08-14T22:33:57.750Z,67.60
2022-08-14T22:36:45.444Z,67.50
2022-08-14T22:39:16.899Z,67.60
2022-08-14T22:41:55.769Z,66.80
2022-08-14T22:44:29.439Z,67.10
2022-08-14T22:46:57.914Z,67.30
2022-08-14T22:50:29.488Z,67.30
2022-08-14T22:52:33.323Z,67.50
2022-08-14T22:55:05.760Z,67.50
2022-08-14T22:57:37.862Z,67.80
2022-08-14T23:00:13.428Z,67.90
2022-08-14T23:02:42.300Z,68.30
2022-08-14T23:05:15.002Z,68.40
2022-08-14T23:08:56.508Z,68.40
2022-08-14T23:10:34.747Z,68.40
2022-08-14T23:13:05.117Z,69.50
2022-08-14T23:15:35.221Z,68.80
2022-08-14T23:18:06.200Z,68.80
2022-08-14T23:20:37.578Z,68.50
2022-08-14T23:23:12.805Z,68.00
2022-08-14T23:25:58.575Z,67.70
2022-08-14T23:28:34.641Z,67.60
2022-08-14T23:31:26.557Z,67.60
2022-08-14T23:34:06.951Z,67.30
2022-08-14T23:36:37.985Z,67.50
2022-08-14T23:39:30.454Z,67.60
2022-08-14T23:42:02.577Z,68.00
2022-08-14T23:44:35.620Z,68.20
2022-08-14T23:47:11.832Z,68.10
2022-08-14T23:50:01.375Z,68.30
2022-08-14T23:52:51.016Z,68.40
2022-08-14T23:55:32.023Z,68.30
2022-08-14T23:58:03.652Z,68.10
